Preview of NWS' New Version of Forecast
This preview is not operational and should not be used for support decisions.

Terminal Aerodrome Forecast (TAF)

Issued by National Weather Service (NWS)

                            
599 
FTUS42 KKEY 200535
TAFEYW
TAF
KEYW 200535Z 2006/2106 10017G27KT P6SM VCSH SCT020 BKN050
      TEMPO 2006/2010 -SHRA BKN020
     FM201500 12017G27KT P6SM FEW020 SCT050=